sensor_id;sensor_type;location;lat;lon;timestamp;pressure;altitude;pressure_sealevel;temperature;humidity
39491;BME280;25175;50.140;18.990;2023-03-20T00:02:46;98452.63;;;8.58;43.51
39491;BME280;25175;50.140;18.990;2023-03-20T00:05:50;98473.41;;;8.72;43.42
39491;BME280;25175;50.140;18.990;2023-03-20T00:08:58;98482.25;;;8.71;43.59
39491;BME280;25175;50.140;18.990;2023-03-20T00:12:04;98482.44;;;8.70;43.34
39491;BME280;25175;50.140;18.990;2023-03-20T00:15:26;98477.22;;;8.70;43.68
39491;BME280;25175;50.140;18.990;2023-03-20T00:18:33;98478.41;;;8.67;43.65
39491;BME280;25175;50.140;18.990;2023-03-20T00:21:39;98486.06;;;8.69;43.81
39491;BME280;25175;50.140;18.990;2023-03-20T00:24:46;98474.00;;;8.68;43.84
39491;BME280;25175;50.140;18.990;2023-03-20T00:27:53;98476.97;;;8.58;43.93
39491;BME280;25175;50.140;18.990;2023-03-20T00:30:58;98476.88;;;8.45;44.53
39491;BME280;25175;50.140;18.990;2023-03-20T00:34:05;98480.50;;;8.38;44.72
39491;BME280;25175;50.140;18.990;2023-03-20T00:37:14;98488.06;;;8.26;44.81
39491;BME280;25175;50.140;18.990;2023-03-20T00:40:28;98476.94;;;8.18;45.38
39491;BME280;25175;50.140;18.990;2023-03-20T00:43:34;98471.34;;;8.21;45.12
39491;BME280;25175;50.140;18.990;2023-03-20T00:46:39;98470.94;;;8.24;45.06
39491;BME280;25175;50.140;18.990;2023-03-20T00:49:48;98468.16;;;8.25;45.02
39491;BME280;25175;50.140;18.990;2023-03-20T00:52:56;98462.91;;;8.25;44.81
39491;BME280;25175;50.140;18.990;2023-03-20T00:56:05;98415.91;;;7.98;44.89
39491;BME280;25175;50.140;18.990;2023-03-20T00:59:27;98467.75;;;8.28;44.27
39491;BME280;25175;50.140;18.990;2023-03-20T01:02:34;98461.13;;;8.32;44.28
39491;BME280;25175;50.140;18.990;2023-03-20T01:05:39;98459.16;;;8.34;44.55
39491;BME280;25175;50.140;18.990;2023-03-20T01:08:44;98457.94;;;8.37;44.93
39491;BME280;25175;50.140;18.990;2023-03-20T01:11:52;98461.19;;;8.39;45.02
39491;BME280;25175;50.140;18.990;2023-03-20T01:14:57;98458.56;;;8.39;44.99
39491;BME280;25175;50.140;18.990;2023-03-20T01:18:05;98456.97;;;8.38;44.81
39491;BME280;25175;50.140;18.990;2023-03-20T01:21:09;98451.69;;;8.31;44.67
39491;BME280;25175;50.140;18.990;2023-03-20T01:24:14;98451.03;;;8.23;44.91
39491;BME280;25175;50.140;18.990;2023-03-20T01:27:23;98305.59;;;7.21;44.85
39491;BME280;25175;50.140;18.990;2023-03-20T01:30:30;98453.59;;;8.10;44.82
39491;BME280;25175;50.140;18.990;2023-03-20T01:33:35;98458.19;;;8.08;44.75
39491;BME280;25175;50.140;18.990;2023-03-20T01:36:46;98461.22;;;8.05;44.90
39491;BME280;25175;50.140;18.990;2023-03-20T01:39:53;98297.00;;;7.00;44.64
39491;BME280;25175;50.140;18.990;2023-03-20T01:43:13;98467.41;;;8.04;44.66
39491;BME280;25175;50.140;18.990;2023-03-20T01:46:24;98459.97;;;8.01;44.85
39491;BME280;25175;50.140;18.990;2023-03-20T01:53:26;98312.31;;;7.09;44.94
39491;BME280;25175;50.140;18.990;2023-03-20T01:56:39;98469.28;;;8.10;44.87
39491;BME280;25175;50.140;18.990;2023-03-20T01:59:53;98458.81;;;8.10;44.92
39491;BME280;25175;50.140;18.990;2023-03-20T02:03:18;98470.53;;;8.20;44.49
39491;BME280;25175;50.140;18.990;2023-03-20T02:06:45;98472.97;;;8.22;44.84
39491;BME280;25175;50.140;18.990;2023-03-20T02:09:55;98469.34;;;8.23;44.65
39491;BME280;25175;50.140;18.990;2023-03-20T02:13:34;98458.09;;;8.29;44.61
39491;BME280;25175;50.140;18.990;2023-03-20T02:16:42;98461.31;;;8.24;44.62
39491;BME280;25175;50.140;18.990;2023-03-20T02:20:03;98469.16;;;8.31;44.63
39491;BME280;25175;50.140;18.990;2023-03-20T02:27:22;98465.50;;;8.19;45.17
39491;BME280;25175;50.140;18.990;2023-03-20T02:30:47;98466.50;;;8.18;44.66
39491;BME280;25175;50.140;18.990;2023-03-20T02:34:34;98470.72;;;8.19;44.49
39491;BME280;25175;50.140;18.990;2023-03-20T02:38:22;98472.56;;;8.25;44.50
39491;BME280;25175;50.140;18.990;2023-03-20T02:41:42;98461.09;;;8.26;44.86
39491;BME280;25175;50.140;18.990;2023-03-20T02:45:03;98468.16;;;8.25;44.96
39491;BME280;25175;50.140;18.990;2023-03-20T02:48:26;98470.72;;;8.19;45.11
39491;BME280;25175;50.140;18.990;2023-03-20T02:51:51;98466.50;;;8.18;45.57
39491;BME280;25175;50.140;18.990;2023-03-20T02:55:16;98469.72;;;8.20;45.50
39491;BME280;25175;50.140;18.990;2023-03-20T02:58:29;98462.28;;;8.17;45.82
39491;BME280;25175;50.140;18.990;2023-03-20T03:01:46;98454.66;;;8.22;45.76
39491;BME280;25175;50.140;18.990;2023-03-20T03:05:00;98452.66;;;8.24;45.83
39491;BME280;25175;50.140;18.990;2023-03-20T03:08:12;98456.47;;;8.21;45.69
39491;BME280;25175;50.140;18.990;2023-03-20T03:11:23;98452.19;;;8.14;45.08
39491;BME280;25175;50.140;18.990;2023-03-20T03:14:33;98452.41;;;8.12;44.88
39491;BME280;25175;50.140;18.990;2023-03-20T03:17:47;98460.25;;;8.12;44.91
39491;BME280;25175;50.140;18.990;2023-03-20T03:20:59;98457.00;;;8.10;45.06
39491;BME280;25175;50.140;18.990;2023-03-20T03:24:26;98449.16;;;8.10;45.21
39491;BME280;25175;50.140;18.990;2023-03-20T03:27:39;98458.81;;;8.10;44.81
39491;BME280;25175;50.140;18.990;2023-03-20T03:30:45;98459.63;;;8.10;44.96
39491;BME280;25175;50.140;18.990;2023-03-20T03:33:58;98460.81;;;8.08;44.77
39491;BME280;25175;50.140;18.990;2023-03-20T03:37:12;98466.84;;;8.08;44.84
39491;BME280;25175;50.140;18.990;2023-03-20T03:40:33;98454.38;;;8.10;44.96
39491;BME280;25175;50.140;18.990;2023-03-20T03:43:51;98460.03;;;8.14;45.17
39491;BME280;25175;50.140;18.990;2023-03-20T03:47:08;98463.47;;;8.14;44.81
39491;BME280;25175;50.140;18.990;2023-03-20T03:50:24;98457.41;;;8.14;44.96
39491;BME280;25175;50.140;18.990;2023-03-20T03:53:39;98458.06;;;8.16;45.36
39491;BME280;25175;50.140;18.990;2023-03-20T03:56:50;98454.63;;;8.15;45.12
39491;BME280;25175;50.140;18.990;2023-03-20T04:00:04;98458.25;;;8.14;44.74
39491;BME280;25175;50.140;18.990;2023-03-20T04:03:15;98447.97;;;8.13;44.69
39491;BME280;25175;50.140;18.990;2023-03-20T04:06:26;98448.16;;;8.05;44.62
39491;BME280;25175;50.140;18.990;2023-03-20T04:09:31;98472.69;;;8.10;44.57
39491;BME280;25175;50.140;18.990;2023-03-20T04:12:38;98462.41;;;8.09;44.59
39491;BME280;25175;50.140;18.990;2023-03-20T04:15:47;98467.63;;;8.09;44.45
39491;BME280;25175;50.140;18.990;2023-03-20T04:18:53;98455.16;;;8.04;44.58
39491;BME280;25175;50.140;18.990;2023-03-20T04:21:58;98467.63;;;8.09;44.50
39491;BME280;25175;50.140;18.990;2023-03-20T04:25:08;98457.19;;;8.09;44.47
39491;BME280;25175;50.140;18.990;2023-03-20T04:28:18;98466.84;;;8.08;44.65
39491;BME280;25175;50.140;18.990;2023-03-20T04:31:40;98467.63;;;8.09;44.55
39491;BME280;25175;50.140;18.990;2023-03-20T04:34:50;98458.19;;;8.08;44.55
39491;BME280;25175;50.140;18.990;2023-03-20T04:38:15;98459.38;;;8.05;44.71
39491;BME280;25175;50.140;18.990;2023-03-20T04:41:20;98464.00;;;8.03;44.68
39491;BME280;25175;50.140;18.990;2023-03-20T04:44:29;98466.19;;;8.00;44.71
39491;BME280;25175;50.140;18.990;2023-03-20T04:47:39;98471.59;;;7.98;44.77
39491;BME280;25175;50.140;18.990;2023-03-20T04:50:44;98461.53;;;7.95;44.64
39491;BME280;25175;50.140;18.990;2023-03-20T04:53:54;98456.69;;;7.92;44.72
39491;BME280;25175;50.140;18.990;2023-03-20T04:57:00;98473.56;;;7.90;44.72
39491;BME280;25175;50.140;18.990;2023-03-20T05:00:06;98468.72;;;7.87;44.87
39491;BME280;25175;50.140;18.990;2023-03-20T05:03:15;98471.91;;;7.82;45.08
39491;BME280;25175;50.140;18.990;2023-03-20T05:06:20;98471.47;;;7.79;45.23
39491;BME280;25175;50.140;18.990;2023-03-20T05:09:25;98478.72;;;7.77;45.12
39491;BME280;25175;50.140;18.990;2023-03-20T05:12:34;98481.69;;;7.74;45.17
39491;BME280;25175;50.140;18.990;2023-03-20T05:15:57;98484.66;;;7.71;45.28
39491;BME280;25175;50.140;18.990;2023-03-20T05:19:14;98481.25;;;7.70;45.25
39491;BME280;25175;50.140;18.990;2023-03-20T05:22:31;98475.44;;;7.68;45.42
39491;BME280;25175;50.140;18.990;2023-03-20T05:25:54;98471.00;;;7.69;45.53
39491;BME280;25175;50.140;18.990;2023-03-20T05:29:08;98356.69;;;6.88;45.37
39491;BME280;25175;50.140;18.990;2023-03-20T05:32:31;98490.03;;;7.63;45.65
39491;BME280;25175;50.140;18.990;2023-03-20T05:36:07;98485.94;;;7.54;45.70
39491;BME280;25175;50.140;18.990;2023-03-20T05:39:50;98481.72;;;7.53;45.82
39491;BME280;25175;50.140;18.990;2023-03-20T05:43:13;98472.44;;;7.50;45.98
39491;BME280;25175;50.140;18.990;2023-03-20T05:46:27;98486.56;;;7.56;46.41
39491;BME280;25175;50.140;18.990;2023-03-20T05:49:48;98494.66;;;7.61;46.33
39491;BME280;25175;50.140;18.990;2023-03-20T05:53:23;98487.00;;;7.59;46.17
39491;BME280;25175;50.140;18.990;2023-03-20T05:56:43;98496.06;;;7.63;46.15
39491;BME280;25175;50.140;18.990;2023-03-20T06:00:00;98469.81;;;7.44;46.07
39491;BME280;25175;50.140;18.990;2023-03-20T06:03:13;98499.88;;;7.61;46.33
39491;BME280;25175;50.140;18.990;2023-03-20T06:06:33;98494.22;;;7.57;46.51
39491;BME280;25175;50.140;18.990;2023-03-20T06:09:42;98508.13;;;7.64;46.83
39491;BME280;25175;50.140;18.990;2023-03-20T06:12:50;98505.13;;;7.67;46.83
39491;BME280;25175;50.140;18.990;2023-03-20T06:16:00;98506.81;;;7.75;47.01
39491;BME280;25175;50.140;18.990;2023-03-20T06:19:04;98511.66;;;7.78;46.56
39491;BME280;25175;50.140;18.990;2023-03-20T06:22:10;98513.69;;;7.82;46.74
39491;BME280;25175;50.140;18.990;2023-03-20T06:25:18;98508.72;;;7.87;46.94
39491;BME280;25175;50.140;18.990;2023-03-20T06:28:24;98522.81;;;7.93;46.94
39491;BME280;25175;50.140;18.990;2023-03-20T06:31:36;98526.47;;;7.98;46.73
39491;BME280;25175;50.140;18.990;2023-03-20T06:34:45;98528.91;;;8.00;46.59
39491;BME280;25175;50.140;18.990;2023-03-20T06:37:50;98535.97;;;8.06;46.86
39491;BME280;25175;50.140;18.990;2023-03-20T06:41:02;98544.00;;;8.04;46.84
39491;BME280;25175;50.140;18.990;2023-03-20T06:44:07;98529.69;;;8.00;46.79
39491;BME280;25175;50.140;18.990;2023-03-20T06:47:32;98527.09;;;8.00;46.64
39491;BME280;25175;50.140;18.990;2023-03-20T06:50:37;98535.97;;;8.06;46.85
39491;BME280;25175;50.140;18.990;2023-03-20T06:53:42;98541.63;;;8.09;46.84
39491;BME280;25175;50.140;18.990;2023-03-20T06:56:55;98543.13;;;8.18;47.26
39491;BME280;25175;50.140;18.990;2023-03-20T07:00:01;98538.53;;;8.27;47.67
39491;BME280;25175;50.140;18.990;2023-03-20T07:03:10;98546.41;;;8.33;47.19
39491;BME280;25175;50.140;18.990;2023-03-20T07:06:19;98550.50;;;8.42;47.72
39491;BME280;25175;50.140;18.990;2023-03-20T07:09:25;98552.75;;;8.52;47.85
39491;BME280;25175;50.140;18.990;2023-03-20T07:12:33;98549.63;;;8.63;48.07
39491;BME280;25175;50.140;18.990;2023-03-20T07:15:38;98554.50;;;8.66;48.20
39491;BME280;25175;50.140;18.990;2023-03-20T07:18:49;98552.50;;;8.74;48.08
39491;BME280;25175;50.140;18.990;2023-03-20T07:21:59;98569.03;;;8.81;48.54
39491;BME280;25175;50.140;18.990;2023-03-20T07:25:14;98564.84;;;8.87;48.67
39491;BME280;25175;50.140;18.990;2023-03-20T07:28:22;98565.06;;;8.92;48.55
39491;BME280;25175;50.140;18.990;2023-03-20T07:31:39;98554.00;;;8.96;48.65
39491;BME280;25175;50.140;18.990;2023-03-20T07:34:48;98560.66;;;8.99;48.91
39491;BME280;25175;50.140;18.990;2023-03-20T07:37:55;98565.31;;;9.03;49.22
39491;BME280;25175;50.140;18.990;2023-03-20T07:41:00;98557.44;;;9.03;48.87
39491;BME280;25175;50.140;18.990;2023-03-20T07:44:10;98564.94;;;9.06;49.07
39491;BME280;25175;50.140;18.990;2023-03-20T07:47:21;98566.94;;;9.11;49.11
39491;BME280;25175;50.140;18.990;2023-03-20T07:50:26;98576.44;;;9.18;49.76
39491;BME280;25175;50.140;18.990;2023-03-20T07:53:31;98570.00;;;9.21;49.30
39491;BME280;25175;50.140;18.990;2023-03-20T07:56:36;98565.78;;;9.20;49.54
39491;BME280;25175;50.140;18.990;2023-03-20T07:59:45;98571.84;;;9.27;49.91
39491;BME280;25175;50.140;18.990;2023-03-20T08:02:50;98564.16;;;9.25;49.83
39491;BME280;25175;50.140;18.990;2023-03-20T08:05:56;98569.03;;;9.35;50.46
39491;BME280;25175;50.140;18.990;2023-03-20T08:09:02;98567.63;;;9.39;50.70
39491;BME280;25175;50.140;18.990;2023-03-20T08:12:07;98573.88;;;9.44;51.27
39491;BME280;25175;50.140;18.990;2023-03-20T08:15:14;98581.75;;;9.51;51.79
39491;BME280;25175;50.140;18.990;2023-03-20T08:18:19;98564.44;;;9.50;52.38
39491;BME280;25175;50.140;18.990;2023-03-20T08:21:24;98572.09;;;9.58;53.18
39491;BME280;25175;50.140;18.990;2023-03-20T08:24:29;98573.50;;;9.60;53.51
39491;BME280;25175;50.140;18.990;2023-03-20T08:27:35;98569.09;;;9.67;53.25
39491;BME280;25175;50.140;18.990;2023-03-20T08:30:42;98573.53;;;9.73;53.47
39491;BME280;25175;50.140;18.990;2023-03-20T08:33:47;98570.56;;;9.83;54.23
39491;BME280;25175;50.140;18.990;2023-03-20T08:36:52;98552.97;;;9.77;54.48
39491;BME280;25175;50.140;18.990;2023-03-20T08:39:57;98569.56;;;9.97;54.43
39491;BME280;25175;50.140;18.990;2023-03-20T08:43:01;98570.56;;;10.02;54.57
39491;BME280;25175;50.140;18.990;2023-03-20T08:46:10;98574.78;;;10.10;55.04
39491;BME280;25175;50.140;18.990;2023-03-20T08:49:16;98583.44;;;10.17;55.24
39491;BME280;25175;50.140;18.990;2023-03-20T08:52:21;98580.22;;;10.21;55.61
39491;BME280;25175;50.140;18.990;2023-03-20T08:55:27;98575.41;;;10.25;55.25
39491;BME280;25175;50.140;18.990;2023-03-20T08:58:32;98578.22;;;10.30;55.83
39491;BME280;25175;50.140;18.990;2023-03-20T09:01:39;98579.81;;;10.31;56.07
39491;BME280;25175;50.140;18.990;2023-03-20T09:04:45;98583.22;;;10.38;56.30
39491;BME280;25175;50.140;18.990;2023-03-20T09:07:49;98587.28;;;10.40;56.55
39491;BME280;25175;50.140;18.990;2023-03-20T09:10:54;98582.81;;;10.47;56.98
39491;BME280;25175;50.140;18.990;2023-03-20T09:13:59;98581.59;;;10.50;56.98
39491;BME280;25175;50.140;18.990;2023-03-20T09:17:07;98578.56;;;10.53;57.30
39491;BME280;25175;50.140;18.990;2023-03-20T09:20:12;98582.81;;;10.60;57.53
39491;BME280;25175;50.140;18.990;2023-03-20T09:23:18;98565.22;;;10.61;57.67
39491;BME280;25175;50.140;18.990;2023-03-20T09:26:22;98577.72;;;10.72;57.04
39491;BME280;25175;50.140;18.990;2023-03-20T09:29:27;98571.69;;;10.65;57.04
39491;BME280;25175;50.140;18.990;2023-03-20T09:32:35;98569.44;;;10.75;56.86
39491;BME280;25175;50.140;18.990;2023-03-20T09:35:41;98569.84;;;10.72;57.09
39491;BME280;25175;50.140;18.990;2023-03-20T09:38:45;98568.81;;;10.73;57.40
39491;BME280;25175;50.140;18.990;2023-03-20T09:41:51;98575.72;;;10.74;57.67
39491;BME280;25175;50.140;18.990;2023-03-20T09:45:04;98584.16;;;10.76;57.79
39491;BME280;25175;50.140;18.990;2023-03-20T09:48:27;98578.91;;;10.76;57.54
39491;BME280;25175;50.140;18.990;2023-03-20T09:51:41;98583.34;;;10.82;57.06
39491;BME280;25175;50.140;18.990;2023-03-20T09:54:56;98577.25;;;10.88;56.92
39491;BME280;25175;50.140;18.990;2023-03-20T09:58:11;98580.69;;;10.95;57.03
39491;BME280;25175;50.140;18.990;2023-03-20T10:01:25;98577.47;;;10.99;56.71
39491;BME280;25175;50.140;18.990;2023-03-20T10:04:41;98570.81;;;10.97;56.70
39491;BME280;25175;50.140;18.990;2023-03-20T10:07:53;98580.84;;;11.06;56.28
39491;BME280;25175;50.140;18.990;2023-03-20T10:11:10;98577.66;;;11.04;56.08
39491;BME280;25175;50.140;18.990;2023-03-20T10:14:36;98570.16;;;11.08;56.46
39491;BME280;25175;50.140;18.990;2023-03-20T10:18:01;98563.25;;;11.13;56.42
39491;BME280;25175;50.140;18.990;2023-03-20T10:21:26;98567.06;;;11.24;56.35
39491;BME280;25175;50.140;18.990;2023-03-20T10:24:45;98557.31;;;11.31;56.30
39491;BME280;25175;50.140;18.990;2023-03-20T10:27:58;98569.22;;;11.33;56.03
39491;BME280;25175;50.140;18.990;2023-03-20T10:31:20;98566.13;;;11.43;55.75
39491;BME280;25175;50.140;18.990;2023-03-20T10:34:49;98562.69;;;11.42;55.67
39491;BME280;25175;50.140;18.990;2023-03-20T10:38:20;98574.81;;;11.43;56.02
39491;BME280;25175;50.140;18.990;2023-03-20T10:41:39;98567.31;;;11.47;55.49
39491;BME280;25175;50.140;18.990;2023-03-20T10:44:55;98555.22;;;11.46;55.14
39491;BME280;25175;50.140;18.990;2023-03-20T10:48:14;98570.34;;;11.50;54.84
39491;BME280;25175;50.140;18.990;2023-03-20T10:51:37;98556.97;;;11.52;55.51
39491;BME280;25175;50.140;18.990;2023-03-20T10:54:53;98551.13;;;11.50;55.60
39491;BME280;25175;50.140;18.990;2023-03-20T10:58:10;98538.97;;;11.55;55.55
39491;BME280;25175;50.140;18.990;2023-03-20T11:01:22;98544.16;;;11.62;55.50
39491;BME280;25175;50.140;18.990;2023-03-20T11:04:27;98547.41;;;11.64;55.47
39491;BME280;25175;50.140;18.990;2023-03-20T11:07:34;98548.09;;;11.77;55.98
39491;BME280;25175;50.140;18.990;2023-03-20T11:10:43;98545.81;;;11.87;55.29
39491;BME280;25175;50.140;18.990;2023-03-20T11:13:48;98541.13;;;11.89;54.63
39491;BME280;25175;50.140;18.990;2023-03-20T11:16:55;98527.25;;;11.82;54.78
39491;BME280;25175;50.140;18.990;2023-03-20T11:20:05;98546.09;;;11.97;54.62
39491;BME280;25175;50.140;18.990;2023-03-20T11:23:16;98540.84;;;11.97;54.82
39491;BME280;25175;50.140;18.990;2023-03-20T11:26:37;98535.22;;;12.00;55.06
39491;BME280;25175;50.140;18.990;2023-03-20T11:29:48;98538.22;;;12.04;54.61
39491;BME280;25175;50.140;18.990;2023-03-20T11:32:56;98507.13;;;11.94;54.26
39491;BME280;25175;50.140;18.990;2023-03-20T11:36:11;98519.75;;;12.10;54.51
39491;BME280;25175;50.140;18.990;2023-03-20T11:39:26;98517.63;;;12.19;55.11
39491;BME280;25175;50.140;18.990;2023-03-20T11:42:35;98526.22;;;12.32;54.46
39491;BME280;25175;50.140;18.990;2023-03-20T11:45:43;98503.41;;;12.26;54.04
39491;BME280;25175;50.140;18.990;2023-03-20T11:49:18;98527.75;;;12.40;53.83
39491;BME280;25175;50.140;18.990;2023-03-20T11:52:29;98500.19;;;12.42;54.07
39491;BME280;25175;50.140;18.990;2023-03-20T11:55:36;98508.97;;;12.54;54.58
39491;BME280;25175;50.140;18.990;2023-03-20T11:58:54;98500.13;;;12.67;53.92
39491;BME280;25175;50.140;18.990;2023-03-20T12:02:03;98489.22;;;12.81;53.88
39491;BME280;25175;50.140;18.990;2023-03-20T12:05:29;98494.28;;;12.94;53.43
39491;BME280;25175;50.140;18.990;2023-03-20T12:08:39;98497.59;;;13.08;52.98
39491;BME280;25175;50.140;18.990;2023-03-20T12:11:51;98501.53;;;13.17;52.16
39491;BME280;25175;50.140;18.990;2023-03-20T12:15:12;98471.31;;;13.19;52.19
39491;BME280;25175;50.140;18.990;2023-03-20T12:18:26;98478.78;;;13.45;52.68
39491;BME280;25175;50.140;18.990;2023-03-20T12:21:44;98487.56;;;13.69;53.06
39491;BME280;25175;50.140;18.990;2023-03-20T12:25:00;98449.81;;;13.68;51.02
39491;BME280;25175;50.140;18.990;2023-03-20T12:28:16;98481.28;;;13.93;50.33
39491;BME280;25175;50.140;18.990;2023-03-20T12:31:38;98473.59;;;13.91;49.76
39491;BME280;25175;50.140;18.990;2023-03-20T12:34:51;98481.88;;;13.95;49.63
39491;BME280;25175;50.140;18.990;2023-03-20T12:38:17;98475.78;;;13.94;50.28
39491;BME280;25175;50.140;18.990;2023-03-20T12:41:35;98472.09;;;13.95;49.00
39491;BME280;25175;50.140;18.990;2023-03-20T12:44:55;98478.09;;;14.02;50.34
39491;BME280;25175;50.140;18.990;2023-03-20T12:48:33;98471.75;;;14.15;49.10
39491;BME280;25175;50.140;18.990;2023-03-20T12:51:57;98341.97;;;13.32;48.76
39491;BME280;25175;50.140;18.990;2023-03-20T12:55:20;98472.81;;;14.14;48.58
39491;BME280;25175;50.140;18.990;2023-03-20T12:58:41;98447.00;;;13.93;48.12
39491;BME280;25175;50.140;18.990;2023-03-20T13:01:52;98476.03;;;14.04;48.13
39491;BME280;25175;50.140;18.990;2023-03-20T13:05:24;98465.91;;;13.90;48.44
39491;BME280;25175;50.140;18.990;2023-03-20T13:08:59;98476.69;;;13.88;48.71
39491;BME280;25175;50.140;18.990;2023-03-20T13:12:36;98463.03;;;13.80;48.49
39491;BME280;25175;50.140;18.990;2023-03-20T13:16:04;98471.06;;;13.85;48.84
39491;BME280;25175;50.140;18.990;2023-03-20T13:19:26;98467.03;;;13.82;48.91
39491;BME280;25175;50.140;18.990;2023-03-20T13:22:51;98463.38;;;13.83;48.96
39491;BME280;25175;50.140;18.990;2023-03-20T13:26:14;98470.72;;;13.81;48.77
39491;BME280;25175;50.140;18.990;2023-03-20T13:29:42;98462.69;;;13.76;49.21
39491;BME280;25175;50.140;18.990;2023-03-20T13:33:04;98465.09;;;13.78;48.94
39491;BME280;25175;50.140;18.990;2023-03-20T13:36:42;98458.44;;;13.75;49.48
39491;BME280;25175;50.140;18.990;2023-03-20T13:40:05;98453.16;;;13.64;49.40
39491;BME280;25175;50.140;18.990;2023-03-20T13:43:24;98459.47;;;13.63;49.54
39491;BME280;25175;50.140;18.990;2023-03-20T13:46:38;98457.72;;;13.57;50.07
39491;BME280;25175;50.140;18.990;2023-03-20T13:49:56;98458.88;;;13.49;50.15
39491;BME280;25175;50.140;18.990;2023-03-20T13:53:21;98464.13;;;13.49;50.29
39491;BME280;25175;50.140;18.990;2023-03-20T13:56:42;98463.31;;;13.49;50.54
39491;BME280;25175;50.140;18.990;2023-03-20T14:00:07;98452.69;;;13.44;50.45
39491;BME280;25175;50.140;18.990;2023-03-20T14:03:32;98460.00;;;13.42;50.69
39491;BME280;25175;50.140;18.990;2023-03-20T14:06:51;98462.50;;;13.37;50.88
39491;BME280;25175;50.140;18.990;2023-03-20T14:10:33;98463.09;;;13.39;51.26
39491;BME280;25175;50.140;18.990;2023-03-20T14:13:48;98459.22;;;13.41;51.45
39491;BME280;25175;50.140;18.990;2023-03-20T14:17:02;98469.16;;;13.39;51.46
39491;BME280;25175;50.140;18.990;2023-03-20T14:20:24;98468.38;;;13.39;51.72
39491;BME280;25175;50.140;18.990;2023-03-20T14:23:38;98457.22;;;13.37;51.77
39491;BME280;25175;50.140;18.990;2023-03-20T14:26:54;98468.59;;;13.37;52.10
39491;BME280;25175;50.140;18.990;2023-03-20T14:33:58;98459.91;;;13.48;51.75
39491;BME280;25175;50.140;18.990;2023-03-20T14:37:35;98462.63;;;13.42;51.76
39491;BME280;25175;50.140;18.990;2023-03-20T14:40:52;98463.44;;;13.42;51.54
39491;BME280;25175;50.140;18.990;2023-03-20T14:44:21;98467.69;;;13.43;51.51
39491;BME280;25175;50.140;18.990;2023-03-20T14:47:44;98462.19;;;13.45;51.76
39491;BME280;25175;50.140;18.990;2023-03-20T14:51:12;98458.97;;;13.43;51.75
39491;BME280;25175;50.140;18.990;2023-03-20T14:54:29;98460.00;;;13.42;51.55
39491;BME280;25175;50.140;18.990;2023-03-20T14:57:34;98450.94;;;13.38;51.65
39491;BME280;25175;50.140;18.990;2023-03-20T15:00:45;98349.25;;;12.66;51.92
39491;BME280;25175;50.140;18.990;2023-03-20T15:03:56;98452.22;;;13.35;51.92
39491;BME280;25175;50.140;18.990;2023-03-20T15:07:10;98440.94;;;13.28;51.84
39491;BME280;25175;50.140;18.990;2023-03-20T15:10:18;98442.22;;;13.37;52.55
39491;BME280;25175;50.140;18.990;2023-03-20T15:13:27;98418.59;;;13.31;52.39
39491;BME280;25175;50.140;18.990;2023-03-20T15:16:34;98439.94;;;13.41;52.72
39491;BME280;25175;50.140;18.990;2023-03-20T15:19:45;98441.66;;;13.35;53.44
39491;BME280;25175;50.140;18.990;2023-03-20T15:22:52;98446.56;;;13.32;53.50
39491;BME280;25175;50.140;18.990;2023-03-20T15:25:59;98434.06;;;13.27;54.12
39491;BME280;25175;50.140;18.990;2023-03-20T15:29:06;98445.28;;;13.23;54.16
39491;BME280;25175;50.140;18.990;2023-03-20T15:32:17;98439.69;;;13.19;54.28
39491;BME280;25175;50.140;18.990;2023-03-20T15:35:26;98431.28;;;13.11;54.53
39491;BME280;25175;50.140;18.990;2023-03-20T15:38:33;98432.69;;;13.13;54.94
39491;BME280;25175;50.140;18.990;2023-03-20T15:41:43;98436.66;;;13.16;55.04
39491;BME280;25175;50.140;18.990;2023-03-20T15:44:52;98437.84;;;13.20;54.98
39491;BME280;25175;50.140;18.990;2023-03-20T15:48:01;98441.84;;;13.22;55.22
39491;BME280;25175;50.140;18.990;2023-03-20T15:51:12;98445.28;;;13.23;55.13
39491;BME280;25175;50.140;18.990;2023-03-20T15:54:18;98448.72;;;13.23;55.60
39491;BME280;25175;50.140;18.990;2023-03-20T15:57:30;98414.09;;;13.08;55.74
39491;BME280;25175;50.140;18.990;2023-03-20T16:00:42;98445.44;;;13.28;55.67
39491;BME280;25175;50.140;18.990;2023-03-20T16:03:50;98436.78;;;13.21;55.56
39491;BME280;25175;50.140;18.990;2023-03-20T16:06:59;98454.81;;;13.24;55.42
39491;BME280;25175;50.140;18.990;2023-03-20T16:10:16;98444.81;;;13.26;55.44
39491;BME280;25175;50.140;18.990;2023-03-20T16:13:23;98427.41;;;13.13;55.17
39491;BME280;25175;50.140;18.990;2023-03-20T16:16:30;98452.16;;;13.24;55.16
39491;BME280;25175;50.140;18.990;2023-03-20T16:19:37;98448.50;;;13.25;55.18
39491;BME280;25175;50.140;18.990;2023-03-20T16:22:47;98442.44;;;13.24;55.06
39491;BME280;25175;50.140;18.990;2023-03-20T16:25:56;98436.78;;;13.21;54.92
39491;BME280;25175;50.140;18.990;2023-03-20T16:29:04;98289.06;;;12.29;54.85
39491;BME280;25175;50.140;18.990;2023-03-20T16:32:21;98437.00;;;13.08;54.86
39491;BME280;25175;50.140;18.990;2023-03-20T16:35:38;98443.09;;;13.20;54.72
39491;BME280;25175;50.140;18.990;2023-03-20T16:38:57;98441.84;;;13.11;54.72
39491;BME280;25175;50.140;18.990;2023-03-20T16:42:19;98443.09;;;13.08;54.94
39491;BME280;25175;50.140;18.990;2023-03-20T16:45:29;98439.84;;;13.06;54.55
39491;BME280;25175;50.140;18.990;2023-03-20T16:48:36;98454.53;;;13.02;54.56
39491;BME280;25175;50.140;18.990;2023-03-20T16:51:43;98466.34;;;12.93;54.98
39491;BME280;25175;50.140;18.990;2023-03-20T16:54:51;98459.00;;;12.84;54.93
39491;BME280;25175;50.140;18.990;2023-03-20T16:58:00;98471.56;;;12.82;54.75
39491;BME280;25175;50.140;18.990;2023-03-20T17:01:15;98461.78;;;12.71;54.91
39491;BME280;25175;50.140;18.990;2023-03-20T17:04:28;98457.25;;;12.60;55.07
39491;BME280;25175;50.140;18.990;2023-03-20T17:07:38;98455.81;;;12.46;55.09
39491;BME280;25175;50.140;18.990;2023-03-20T17:10:53;98472.50;;;12.40;55.15